createdAt,value
2022-12-19T00:01:18.645Z,74.92
2022-12-19T00:03:50.648Z,75.15
2022-12-19T00:06:18.623Z,75.62
2022-12-19T00:08:47.875Z,74.85
2022-12-19T00:11:15.243Z,75.72
2022-12-19T00:13:42.961Z,75.82
2022-12-19T00:16:13.495Z,74.85
2022-12-19T00:18:41.358Z,75.94
2022-12-19T00:21:08.542Z,74.79
2022-12-19T00:23:35.741Z,75.85
2022-12-19T00:26:09.691Z,75.76
2022-12-19T00:28:36.311Z,76.47
2022-12-19T00:31:04.090Z,76.24
2022-12-19T00:33:30.674Z,76.21
2022-12-19T00:36:05.136Z,75.97
2022-12-19T00:38:32.149Z,76.29
2022-12-19T00:41:08.405Z,76.37
2022-12-19T00:43:35.100Z,76.43
2022-12-19T00:46:06.775Z,76.47
2022-12-19T00:48:33.895Z,77.27
2022-12-19T00:51:06.785Z,76.48
2022-12-19T00:53:34.425Z,76.46
2022-12-19T00:56:06.411Z,76.22
2022-12-19T00:58:35.654Z,76.05
2022-12-19T01:01:07.473Z,75.79
2022-12-19T01:03:34.205Z,76.74
2022-12-19T01:06:00.595Z,75.88
2022-12-19T01:08:27.154Z,76.07
2022-12-19T01:10:55.145Z,76.34
2022-12-19T01:13:22.926Z,76.12
2022-12-19T01:15:49.345Z,76.28
2022-12-19T01:18:15.927Z,76.26
2022-12-19T01:20:45.269Z,76.41
2022-12-19T01:23:14.095Z,75.61
2022-12-19T01:25:45.797Z,76.18
2022-12-19T01:28:15.039Z,76.41
2022-12-19T01:30:42.812Z,76.52
2022-12-19T01:33:14.839Z,76.19
2022-12-19T01:35:42.616Z,76.69
2022-12-19T01:38:15.048Z,76.73
2022-12-19T01:40:48.706Z,76.54
2022-12-19T01:43:15.622Z,76.77
2022-12-19T01:45:45.829Z,76.82
2022-12-19T01:48:35.782Z,77.98
2022-12-19T01:51:13.964Z,76.81
2022-12-19T01:53:49.279Z,77.93
2022-12-19T01:56:22.625Z,77.55
2022-12-19T01:58:59.425Z,78.33
2022-12-19T02:01:33.704Z,77.93
2022-12-19T02:04:02.353Z,77.35
2022-12-19T02:06:30.431Z,77.34
2022-12-19T02:08:57.426Z,77.90
2022-12-19T02:11:23.868Z,78.12
2022-12-19T02:13:50.487Z,77.72
2022-12-19T02:16:43.654Z,78.01
2022-12-19T02:19:38.195Z,78.69
2022-12-19T02:22:21.749Z,79.08
2022-12-19T02:25:05.318Z,79.53
2022-12-19T02:28:00.766Z,78.67
2022-12-19T02:30:48.034Z,79.16
2022-12-19T02:33:31.308Z,78.89
2022-12-19T02:36:08.375Z,78.65
2022-12-19T02:38:47.566Z,79.75
2022-12-19T02:41:43.004Z,78.20
2022-12-19T02:44:19.278Z,78.54
2022-12-19T02:46:47.776Z,79.41
2022-12-19T02:49:26.194Z,78.54
2022-12-19T02:51:57.286Z,79.20
2022-12-19T02:54:23.980Z,79.97
2022-12-19T02:56:59.271Z,79.07
2022-12-19T03:00:03.447Z,80.41
2022-12-19T03:02:36.095Z,81.91
2022-12-19T03:05:05.646Z,80.33
2022-12-19T03:07:52.173Z,80.49
2022-12-19T03:10:35.669Z,80.11
2022-12-19T03:13:12.223Z,80.09
2022-12-19T03:15:41.168Z,81.04
2022-12-19T03:18:08.173Z,80.61
2022-12-19T03:21:02.546Z,80.48
2022-12-19T03:23:30.570Z,81.81
2022-12-19T03:26:06.593Z,81.96
2022-12-19T03:28:47.391Z,82.57
2022-12-19T03:31:16.882Z,83.10
2022-12-19T03:33:45.720Z,83.02
2022-12-19T03:36:19.976Z,82.97
2022-12-19T03:38:48.500Z,83.46
2022-12-19T03:41:38.421Z,83.23
2022-12-19T03:44:07.652Z,83.23
2022-12-19T03:46:41.079Z,83.64
2022-12-19T03:49:07.461Z,85.13
2022-12-19T03:51:46.164Z,84.37
2022-12-19T03:54:22.127Z,84.42
2022-12-19T03:57:07.642Z,84.22
2022-12-19T03:59:48.956Z,84.11
2022-12-19T04:02:17.651Z,84.82
2022-12-19T04:04:47.222Z,84.76
2022-12-19T04:07:14.881Z,84.66
2022-12-19T04:09:43.349Z,84.99
2022-12-19T04:12:17.762Z,85.98
2022-12-19T04:14:44.745Z,85.24
2022-12-19T04:17:39.289Z,85.12
2022-12-19T04:20:12.350Z,85.04
2022-12-19T04:22:57.041Z,85.54
2022-12-19T04:25:32.070Z,85.26
2022-12-19T04:28:05.372Z,85.81
2022-12-19T04:30:36.755Z,84.76
2022-12-19T04:33:03.931Z,84.79
2022-12-19T04:35:30.495Z,85.25
2022-12-19T04:37:57.036Z,85.69
2022-12-19T04:40:23.883Z,85.44
2022-12-19T04:42:53.489Z,85.22
2022-12-19T04:45:22.964Z,85.44
2022-12-19T04:47:49.724Z,85.90
2022-12-19T04:50:16.331Z,85.51
2022-12-19T04:52:42.840Z,85.85
2022-12-19T04:55:09.855Z,85.39
2022-12-19T04:57:36.361Z,85.80
2022-12-19T05:00:05.008Z,86.03
2022-12-19T05:02:32.243Z,85.62
2022-12-19T05:04:59.257Z,86.70
2022-12-19T05:07:25.679Z,86.46
2022-12-19T05:09:52.136Z,86.19
2022-12-19T05:12:18.651Z,85.75
2022-12-19T05:14:45.676Z,85.84
2022-12-19T05:17:12.051Z,85.34
2022-12-19T05:19:38.547Z,86.00
2022-12-19T05:22:05.215Z,86.90
2022-12-19T05:24:31.656Z,86.05
2022-12-19T05:26:58.687Z,86.09
2022-12-19T05:29:27.639Z,87.09
2022-12-19T05:31:54.189Z,86.43
2022-12-19T05:34:20.653Z,86.10
2022-12-19T05:36:47.225Z,87.04
2022-12-19T05:39:16.501Z,86.59
2022-12-19T05:41:46.291Z,86.89
2022-12-19T05:44:15.153Z,86.85
2022-12-19T05:46:41.894Z,87.06
2022-12-19T05:49:08.507Z,86.27
2022-12-19T05:51:45.419Z,87.10
2022-12-19T05:54:11.924Z,86.77
2022-12-19T05:56:38.660Z,87.21
2022-12-19T05:59:06.210Z,87.17
2022-12-19T06:01:32.964Z,87.02
2022-12-19T06:03:59.421Z,87.23
2022-12-19T06:06:27.232Z,86.83
2022-12-19T06:08:55.280Z,86.70
2022-12-19T06:11:22.242Z,87.15
2022-12-19T06:13:48.664Z,86.80
2022-12-19T06:16:17.410Z,87.61
2022-12-19T06:18:45.641Z,87.69
2022-12-19T06:21:15.181Z,86.80
2022-12-19T06:23:42.463Z,87.35
2022-12-19T06:26:18.270Z,87.20
2022-12-19T06:28:45.652Z,87.47
2022-12-19T06:31:12.822Z,87.61
2022-12-19T06:33:39.304Z,87.90
2022-12-19T06:36:15.750Z,88.05
2022-12-19T06:38:42.214Z,88.06
2022-12-19T06:41:29.164Z,87.99
2022-12-19T06:44:03.934Z,88.27
2022-12-19T06:46:30.960Z,89.05
2022-12-19T06:48:57.401Z,89.53
2022-12-19T06:51:23.753Z,88.95
2022-12-19T06:53:50.938Z,89.17
2022-12-19T06:56:17.899Z,89.82
2022-12-19T06:58:44.610Z,90.48
2022-12-19T07:01:30.155Z,93.50
2022-12-19T07:03:56.986Z,90.69
2022-12-19T07:06:23.556Z,94.47
2022-12-19T07:08:49.890Z,92.13
2022-12-19T07:11:16.271Z,90.23
2022-12-19T07:13:42.635Z,93.65
2022-12-19T07:16:09.193Z,92.90
2022-12-19T07:18:39.617Z,92.02
2022-12-19T07:21:07.693Z,91.95
2022-12-19T07:23:35.139Z,91.48
2022-12-19T07:26:01.660Z,91.43
2022-12-19T07:28:28.051Z,90.93
2022-12-19T07:30:54.380Z,90.31
2022-12-19T07:33:21.993Z,91.09
2022-12-19T07:35:48.583Z,90.88
2022-12-19T07:38:15.131Z,91.28
2022-12-19T07:40:41.443Z,91.18
2022-12-19T07:43:07.827Z,91.23
2022-12-19T07:45:37.527Z,93.19
2022-12-19T07:48:05.676Z,91.59
2022-12-19T07:50:32.073Z,91.66
2022-12-19T07:52:58.952Z,91.75
2022-12-19T07:55:26.233Z,90.16
2022-12-19T07:57:53.534Z,91.15
2022-12-19T08:00:19.983Z,90.28
2022-12-19T08:02:46.771Z,91.71
2022-12-19T08:05:13.414Z,90.78
2022-12-19T08:07:40.644Z,90.93
2022-12-19T08:10:07.979Z,90.80
2022-12-19T08:12:34.320Z,91.92
2022-12-19T08:15:00.660Z,91.37
2022-12-19T08:17:27.088Z,90.58
2022-12-19T08:19:53.566Z,90.95
2022-12-19T08:22:19.959Z,90.78
2022-12-19T08:24:46.421Z,93.17
2022-12-19T08:27:12.786Z,92.46
2022-12-19T08:29:39.206Z,90.22
2022-12-19T08:32:05.596Z,90.09
2022-12-19T08:34:32.773Z,92.25
2022-12-19T08:36:59.295Z,92.90
2022-12-19T08:39:25.635Z,92.90
2022-12-19T08:41:52.222Z,91.44
2022-12-19T08:44:18.600Z,91.62
2022-12-19T08:46:49.918Z,92.85
2022-12-19T08:49:16.815Z,90.96
2022-12-19T08:51:43.204Z,91.59
2022-12-19T08:54:11.659Z,93.61
2022-12-19T08:56:44.007Z,92.60
2022-12-19T08:59:15.854Z,91.42
2022-12-19T09:01:56.575Z,92.07
2022-12-19T09:05:39.522Z,92.13
2022-12-19T09:07:09.286Z,92.08
2022-12-19T09:09:35.665Z,93.03
2022-12-19T09:12:01.988Z,93.40
2022-12-19T09:14:32.810Z,91.98
2022-12-19T09:16:59.260Z,92.46
2022-12-19T09:19:27.265Z,92.42
2022-12-19T09:21:53.632Z,92.29
2022-12-19T09:24:21.279Z,92.17
2022-12-19T09:26:47.621Z,91.78
2022-12-19T09:29:20.800Z,91.84
2022-12-19T09:31:55.897Z,92.15
2022-12-19T09:34:31.868Z,92.10
2022-12-19T09:37:06.347Z,91.16
2022-12-19T09:39:33.323Z,91.27
2022-12-19T09:42:40.696Z,91.48
2022-12-19T09:45:31.806Z,91.17
2022-12-19T09:47:59.435Z,91.19
2022-12-19T09:50:47.854Z,91.64
2022-12-19T09:53:38.082Z,91.83
2022-12-19T09:56:10.611Z,91.04
2022-12-19T09:59:00.697Z,90.62
2022-12-19T10:01:36.127Z,89.81
2022-12-19T10:04:10.380Z,89.88
2022-12-19T10:07:19.831Z,89.54
2022-12-19T10:11:26.578Z,90.35
2022-12-19T10:12:49.914Z,90.60
2022-12-19T10:15:26.480Z,90.69
2022-12-19T10:17:58.670Z,90.20
2022-12-19T10:20:35.356Z,90.19
2022-12-19T10:23:14.668Z,90.59
2022-12-19T10:26:01.534Z,89.88
2022-12-19T10:29:15.843Z,89.91
2022-12-19T10:31:54.731Z,90.10
2022-12-19T10:34:40.771Z,90.20
2022-12-19T10:37:27.132Z,89.82
2022-12-19T10:40:01.727Z,89.60
2022-12-19T10:42:55.465Z,90.90
2022-12-19T10:45:24.100Z,90.16
2022-12-19T10:47:56.372Z,90.08
2022-12-19T10:50:29.464Z,89.69
2022-12-19T10:53:08.037Z,90.04
2022-12-19T10:55:43.859Z,89.39
2022-12-19T10:58:33.723Z,89.77
2022-12-19T11:01:05.680Z,89.85
2022-12-19T11:03:34.149Z,89.48
2022-12-19T11:06:02.661Z,90.09
2022-12-19T11:08:31.815Z,89.92
2022-12-19T11:12:29.764Z,88.96
2022-12-19T11:20:33.014Z,89.50
2022-12-19T11:24:29.206Z,90.24
2022-12-19T11:29:16.308Z,89.58
2022-12-19T11:29:44.431Z,89.53
2022-12-19T11:30:09.085Z,89.29
2022-12-19T11:30:48.667Z,90.16
2022-12-19T11:34:15.320Z,89.62
2022-12-19T11:36:53.728Z,90.64
2022-12-19T11:39:42.946Z,90.30
2022-12-19T11:42:34.258Z,90.27
2022-12-19T11:45:25.474Z,88.58
2022-12-19T11:48:03.220Z,88.57
2022-12-19T11:50:53.542Z,88.82
2022-12-19T11:53:36.028Z,90.25
2022-12-19T11:56:16.432Z,89.16
2022-12-19T11:58:49.400Z,89.14
2022-12-19T12:01:57.864Z,88.42
2022-12-19T12:05:09.681Z,87.96
2022-12-19T12:08:56.006Z,87.83
2022-12-19T12:16:48.406Z,88.09
2022-12-19T12:23:11.383Z,88.18
2022-12-19T12:27:42.061Z,87.92
2022-12-19T12:31:22.107Z,88.07
2022-12-19T12:31:23.332Z,87.97
2022-12-19T12:31:46.193Z,89.24
2022-12-19T12:31:47.567Z,88.54
2022-12-19T12:35:54.201Z,87.51
2022-12-19T12:38:38.095Z,87.71
2022-12-19T12:41:44.104Z,87.36
2022-12-19T12:44:12.148Z,87.36
2022-12-19T12:46:48.991Z,87.29
2022-12-19T12:49:48.866Z,86.79
2022-12-19T12:52:35.209Z,86.85
2022-12-19T12:55:04.638Z,86.58
2022-12-19T12:57:37.724Z,86.98
2022-12-19T13:00:20.784Z,86.98
2022-12-19T13:02:54.502Z,86.48
2022-12-19T13:05:45.840Z,87.13
2022-12-19T13:08:36.192Z,86.42
2022-12-19T13:11:19.737Z,85.73
2022-12-19T13:13:52.979Z,85.35
2022-12-19T13:16:45.663Z,85.51
2022-12-19T13:19:21.019Z,84.68
2022-12-19T13:22:08.857Z,84.95
2022-12-19T13:24:39.797Z,84.24
2022-12-19T13:27:18.429Z,85.09
2022-12-19T13:29:54.143Z,83.89
2022-12-19T13:32:22.701Z,83.93
2022-12-19T13:35:28.225Z,84.63
2022-12-19T13:39:57.949Z,82.17
2022-12-19T13:40:55.367Z,82.45
2022-12-19T13:43:47.378Z,83.34
2022-12-19T13:46:42.451Z,83.60
2022-12-19T13:49:38.252Z,84.04
2022-12-19T13:52:06.617Z,83.86
2022-12-19T13:54:50.792Z,83.39
2022-12-19T13:57:22.989Z,83.45
2022-12-19T14:00:00.206Z,83.87
2022-12-19T14:02:32.530Z,82.71
2022-12-19T14:06:16.118Z,81.96
2022-12-19T14:08:28.475Z,79.66
2022-12-19T14:11:35.283Z,81.13
2022-12-19T14:14:18.959Z,80.58
2022-12-19T14:16:48.418Z,78.53
2022-12-19T14:19:19.019Z,79.90
2022-12-19T14:22:03.579Z,79.21
2022-12-19T14:24:31.756Z,77.71
2022-12-19T14:28:20.603Z,78.90
2022-12-19T14:30:29.095Z,77.72
2022-12-19T14:33:43.766Z,77.01
2022-12-19T14:36:12.072Z,77.77
2022-12-19T14:39:23.551Z,76.36
2022-12-19T14:41:40.831Z,76.10
2022-12-19T14:52:08.521Z,76.36
2022-12-19T14:54:16.121Z,76.23
2022-12-19T14:54:22.220Z,74.68
2022-12-19T14:54:29.064Z,74.78
2022-12-19T14:56:16.764Z,73.52
2022-12-19T14:58:54.462Z,73.93
2022-12-19T15:01:26.467Z,74.72
2022-12-19T15:04:48.980Z,73.09
2022-12-19T15:07:08.897Z,73.88
2022-12-19T15:10:58.873Z,73.43
2022-12-19T15:14:50.942Z,73.50
2022-12-19T15:16:05.907Z,73.40
2022-12-19T15:18:32.375Z,74.65
2022-12-19T15:21:01.142Z,74.05
2022-12-19T15:23:29.118Z,72.64
2022-12-19T15:26:06.134Z,75.19
2022-12-19T15:28:42.974Z,73.91
2022-12-19T15:31:18.369Z,75.02
2022-12-19T15:34:14.308Z,75.65
2022-12-19T15:36:31.626Z,74.98
2022-12-19T15:38:58.090Z,74.29
2022-12-19T15:41:25.259Z,75.16
2022-12-19T15:44:03.843Z,74.02
2022-12-19T15:46:32.213Z,73.03
2022-12-19T15:48:58.647Z,73.35
2022-12-19T15:51:24.981Z,75.35
2022-12-19T15:53:51.372Z,73.85
2022-12-19T15:56:30.396Z,74.24
2022-12-19T15:59:00.383Z,72.54
2022-12-19T16:01:28.044Z,73.54
2022-12-19T16:03:58.824Z,73.67
2022-12-19T16:06:25.720Z,72.70
2022-12-19T16:08:52.085Z,73.42
2022-12-19T16:11:22.653Z,72.91
2022-12-19T16:13:52.834Z,73.35
2022-12-19T16:16:19.357Z,72.61
2022-12-19T16:18:47.350Z,72.99
2022-12-19T16:21:27.372Z,72.99
2022-12-19T16:23:57.815Z,72.56
2022-12-19T16:26:31.335Z,72.11
2022-12-19T16:28:58.473Z,73.08
2022-12-19T16:31:26.380Z,71.77
2022-12-19T16:33:53.594Z,72.01
2022-12-19T16:36:20.449Z,72.66
2022-12-19T16:38:47.271Z,72.09
2022-12-19T16:41:24.999Z,71.76
2022-12-19T16:43:52.180Z,72.09
2022-12-19T16:46:21.617Z,72.24
2022-12-19T16:48:48.838Z,72.47
2022-12-19T16:51:25.587Z,72.58
2022-12-19T16:53:54.931Z,73.21
2022-12-19T16:56:44.663Z,72.72
2022-12-19T16:59:16.218Z,73.34
2022-12-19T17:01:45.056Z,73.41
2022-12-19T17:04:17.357Z,73.68
2022-12-19T17:06:43.941Z,73.70
2022-12-19T17:09:18.702Z,73.61
2022-12-19T17:11:48.255Z,73.45
2022-12-19T17:14:20.959Z,72.55
2022-12-19T17:16:48.299Z,73.48
2022-12-19T17:19:23.502Z,73.19
2022-12-19T17:21:50.808Z,72.26
2022-12-19T17:24:18.648Z,73.01
2022-12-19T17:26:46.199Z,72.27
2022-12-19T17:29:13.535Z,73.39
2022-12-19T17:31:40.656Z,72.07
2022-12-19T17:34:15.778Z,72.96
2022-12-19T17:36:42.253Z,72.12
2022-12-19T17:39:29.485Z,71.69
2022-12-19T17:41:58.995Z,72.34
2022-12-19T17:44:25.351Z,71.50
2022-12-19T17:46:52.427Z,71.57
2022-12-19T17:49:38.259Z,71.89
2022-12-19T17:52:09.447Z,72.05
2022-12-19T17:54:36.033Z,71.72
2022-12-19T17:57:02.361Z,70.50
2022-12-19T17:59:28.691Z,70.86
2022-12-19T18:01:55.252Z,71.54
2022-12-19T18:04:21.845Z,71.54
2022-12-19T18:06:49.258Z,71.52
2022-12-19T18:09:21.431Z,71.89
2022-12-19T18:11:48.902Z,71.46
2022-12-19T18:14:15.971Z,71.76
2022-12-19T18:16:43.793Z,71.89
2022-12-19T18:19:21.732Z,72.20
2022-12-19T18:21:48.428Z,71.21
2022-12-19T18:24:16.460Z,71.78
2022-12-19T18:26:44.760Z,71.56
2022-12-19T18:29:11.546Z,71.91
2022-12-19T18:31:39.943Z,71.66
2022-12-19T18:34:19.233Z,71.65
2022-12-19T18:36:45.849Z,71.91
2022-12-19T18:39:25.221Z,71.55
2022-12-19T18:41:52.497Z,71.93
2022-12-19T18:44:18.872Z,71.89
2022-12-19T18:46:48.468Z,71.75
2022-12-19T18:49:17.113Z,71.95
2022-12-19T18:51:44.606Z,72.29
2022-12-19T18:54:17.428Z,72.16
2022-12-19T18:56:44.268Z,71.82
2022-12-19T18:59:11.038Z,72.22
2022-12-19T19:01:46.576Z,71.85
2022-12-19T19:04:17.405Z,72.29
2022-12-19T19:06:50.957Z,72.26
2022-12-19T19:09:19.378Z,72.19
2022-12-19T19:11:45.876Z,72.26
2022-12-19T19:14:12.398Z,72.33
2022-12-19T19:16:39.850Z,72.15
2022-12-19T19:19:10.017Z,71.96
2022-12-19T19:21:37.087Z,71.88
2022-12-19T19:24:08.802Z,72.59
2022-12-19T19:26:35.460Z,73.05
2022-12-19T19:29:03.006Z,72.76
2022-12-19T19:31:34.259Z,72.38
2022-12-19T19:34:09.934Z,72.64
2022-12-19T19:36:40.161Z,73.00
2022-12-19T19:39:06.561Z,72.46
2022-12-19T19:41:34.226Z,73.33
2022-12-19T19:44:01.250Z,73.63
2022-12-19T19:46:28.125Z,74.27
2022-12-19T19:48:55.180Z,74.40
2022-12-19T19:51:21.529Z,74.30
2022-12-19T19:53:47.875Z,74.62
2022-12-19T19:56:14.253Z,74.59
2022-12-19T19:58:40.742Z,74.86
2022-12-19T20:01:11.402Z,75.89
2022-12-19T20:03:39.898Z,76.02
2022-12-19T20:06:06.699Z,76.53
2022-12-19T20:08:39.163Z,76.54
2022-12-19T20:11:07.112Z,75.80
2022-12-19T20:13:34.109Z,75.57
2022-12-19T20:16:06.612Z,76.19
2022-12-19T20:18:33.939Z,75.84
2022-12-19T20:21:00.268Z,76.43
2022-12-19T20:23:30.801Z,76.68
2022-12-19T20:26:01.751Z,77.27
2022-12-19T20:28:28.504Z,76.46
2022-12-19T20:30:54.920Z,76.10
2022-12-19T20:33:21.658Z,76.32
2022-12-19T20:35:47.974Z,75.23
2022-12-19T20:38:14.414Z,76.24
2022-12-19T20:40:40.809Z,76.94
2022-12-19T20:43:07.283Z,77.32
2022-12-19T20:45:33.677Z,75.64
2022-12-19T20:48:00.132Z,75.10
2022-12-19T20:50:26.517Z,75.51
2022-12-19T20:52:52.872Z,76.02
2022-12-19T20:55:19.574Z,76.89
2022-12-19T20:57:45.892Z,76.85
2022-12-19T21:00:14.665Z,76.56
2022-12-19T21:03:24.986Z,78.25
2022-12-19T21:05:27.426Z,78.00
2022-12-19T21:07:53.769Z,77.85
2022-12-19T21:10:20.628Z,77.55
2022-12-19T21:12:48.075Z,77.57
2022-12-19T21:15:14.742Z,77.82
2022-12-19T21:17:41.109Z,76.72
2022-12-19T21:20:08.109Z,76.92
2022-12-19T21:22:34.485Z,77.38
2022-12-19T21:25:00.835Z,77.24
2022-12-19T21:27:27.189Z,78.44
2022-12-19T21:29:53.593Z,77.30
2022-12-19T21:32:20.026Z,77.75
2022-12-19T21:34:46.426Z,78.06
2022-12-19T21:37:12.748Z,77.22
2022-12-19T21:39:39.090Z,77.29
2022-12-19T21:42:05.426Z,77.52
2022-12-19T21:44:31.739Z,77.79
2022-12-19T21:46:58.223Z,77.99
2022-12-19T21:49:24.694Z,77.02
2022-12-19T21:51:51.546Z,77.43
2022-12-19T21:54:18.226Z,77.26
2022-12-19T21:56:44.690Z,76.73
2022-12-19T21:59:13.900Z,77.22
2022-12-19T22:01:41.723Z,76.70
2022-12-19T22:04:12.581Z,77.76
2022-12-19T22:06:39.242Z,77.35
2022-12-19T22:09:08.399Z,77.83
2022-12-19T22:11:36.256Z,76.65
2022-12-19T22:14:04.534Z,77.37
2022-12-19T22:16:31.564Z,77.49
2022-12-19T22:18:57.999Z,76.83
2022-12-19T22:21:25.561Z,76.57
2022-12-19T22:23:52.120Z,76.27
2022-12-19T22:26:23.073Z,76.55
2022-12-19T22:28:52.046Z,76.17
2022-12-19T22:31:24.380Z,75.58
2022-12-19T22:33:53.464Z,75.31
2022-12-19T22:36:27.658Z,74.13
2022-12-19T22:38:55.651Z,73.48
2022-12-19T22:41:22.114Z,73.43
2022-12-19T22:43:48.673Z,72.98
2022-12-19T22:46:18.506Z,72.79
2022-12-19T22:48:46.575Z,72.57
2022-12-19T22:51:13.857Z,72.40
2022-12-19T22:53:41.100Z,71.91
2022-12-19T22:56:12.219Z,71.98
2022-12-19T22:58:40.406Z,72.18
2022-12-19T23:01:20.254Z,71.90
2022-12-19T23:03:49.514Z,71.50
2022-12-19T23:06:17.004Z,71.13
2022-12-19T23:08:43.866Z,71.04
2022-12-19T23:11:13.448Z,70.97
2022-12-19T23:13:41.405Z,70.62
2022-12-19T23:16:08.529Z,70.13
2022-12-19T23:18:35.001Z,70.33
2022-12-19T23:21:09.139Z,70.19
2022-12-19T23:23:40.180Z,70.36
2022-12-19T23:26:15.141Z,70.17
2022-12-19T23:28:43.008Z,69.88
2022-12-19T23:31:12.121Z,70.08
2022-12-19T23:33:38.852Z,69.65
2022-12-19T23:36:06.166Z,68.90
2022-12-19T23:38:32.582Z,69.05
2022-12-19T23:41:04.261Z,69.42
2022-12-19T23:43:32.503Z,69.06
2022-12-19T23:45:59.067Z,68.88
2022-12-19T23:48:26.438Z,68.92
2022-12-19T23:51:04.532Z,68.74
2022-12-19T23:53:31.734Z,68.60
2022-12-19T23:55:58.946Z,68.48
2022-12-19T23:58:25.432Z,68.65
